Huvudsida
METAR-TAF:

METAR-TAF

Flygplatser :

Zabol flygplats

Zabol, Iran

latitud: 31-20N, longitud: 061-29E, höjd: 489 m

Aktuellt väderrapport

Denna rapport gjordes för 28 minuter sedan, klockan 13:00 UTC
Vind 8 kt från nord/nordväst
Temperatur 17°C
Fuktighet 22%
Tryck 1020 hPa
Sikt 10 km eller mer
Inga moln under 1 500 m eller inga cumulonimbus

METAR: OIZB 121300Z 33008KT CAVOK 17/M05 Q1020

Tid: 16:58 (13:28 UTC)


TAF: saknas

Aktuella väderrapporter och prognoser från 4000 flygplatser (METAR- och TAF-rapporter).

De tillgängliga stationerna syns som gula och röda prickar på kartan.

För musen över prickarna för att se namnen på stationerna.

Klicka sedan för att få väderrapporter och prognoser.

För att ändra kartan: Klicka på de gröna knapparna med ett svart kors på för att zooma in; den gröna knappen med ett streck på för att zooma ut; eller på de gröna pilarna för angränsande kartor.


METAR-TAF: